Time;durP1;ratioP1;P1;durP2;ratioP2;P2;SDS_P1;SDS_P2;PMS_P1;PMS_P2;Temp;Humidity;BMP_temperature;BMP_pressure;BME280_temperature;BME280_humidity;BME280_pressure;Samples;Min_cycle;Max_cycle;Signal;HPM_P1;HPM_P2
2023/11/15 00:01:10;;;;;;;5.03;2.08;;;23.80;48.10;;;;;;6173825;28;80997;-59
2023/11/15 00:04:10;;;;;;;5.15;2.50;;;23.80;48.10;;;;;;6171956;28;81851;-57
2023/11/15 00:07:11;;;;;;;3.58;1.83;;;23.80;48.10;;;;;;6174223;28;81969;-60
2023/11/15 00:10:13;;;;;;;5.32;2.42;;;23.80;48.10;;;;;;6175621;28;80881;-58
2023/11/15 00:13:14;;;;;;;3.97;1.80;;;23.80;48.10;;;;;;6175790;28;80134;-58
2023/11/15 00:16:15;;;;;;;3.80;1.88;;;23.80;48.20;;;;;;6174723;28;81522;-60
2023/11/15 00:19:16;;;;;;;3.67;1.80;;;23.80;48.10;;;;;;6175897;28;87680;-59
2023/11/15 00:22:16;;;;;;;3.97;2.35;;;23.80;48.20;;;;;;6176387;28;81453;-59
2023/11/15 00:25:17;;;;;;;2.95;1.50;;;23.80;48.20;;;;;;6164126;28;80216;-60
2023/11/15 00:28:17;;;;;;;5.47;2.15;;;23.70;48.20;;;;;;6173325;28;81540;-60
2023/11/15 00:31:18;;;;;;;3.15;1.70;;;23.70;48.20;;;;;;6173978;28;81568;-60
2023/11/15 00:34:18;;;;;;;4.20;2.00;;;23.80;48.10;;;;;;6176437;28;80450;-64
2023/11/15 00:37:19;;;;;;;3.08;1.60;;;23.70;48.30;;;;;;6175204;28;80559;-65
2023/11/15 00:40:20;;;;;;;3.03;1.60;;;23.70;48.10;;;;;;6173830;28;81242;-64
2023/11/15 00:43:20;;;;;;;8.40;2.45;;;23.70;48.20;;;;;;6163107;28;80399;-64
2023/11/15 00:46:21;;;;;;;5.82;1.33;;;23.70;48.10;;;;;;6174205;28;80766;-64
2023/11/15 00:49:21;;;;;;;3.47;1.65;;;23.70;48.20;;;;;;6175535;28;81666;-64
2023/11/15 00:52:22;;;;;;;3.47;1.60;;;23.70;48.20;;;;;;6173903;28;81811;-68
2023/11/15 00:55:23;;;;;;;4.68;1.92;;;23.80;48.20;;;;;;6174313;28;80726;-69
2023/11/15 00:58:29;;;;;;;2.55;1.50;;;23.70;48.20;;;;;;6174021;28;80507;-69
2023/11/15 01:01:29;;;;;;;3.22;1.63;;;23.70;48.20;;;;;;6175459;28;81152;-68
2023/11/15 01:04:30;;;;;;;2.45;1.70;;;23.70;48.20;;;;;;6174100;28;81810;-68
2023/11/15 01:07:31;;;;;;;4.68;1.90;;;23.70;48.30;;;;;;6175067;28;81798;-67
2023/11/15 01:10:34;;;;;;;2.67;1.50;;;23.80;48.40;;;;;;6176060;28;80444;-64
2023/11/15 01:13:35;;;;;;;3.35;1.75;;;23.80;48.40;;;;;;6174715;28;81207;-64
2023/11/15 01:16:36;;;;;;;4.28;1.67;;;23.70;48.40;;;;;;6174706;28;80071;-65
2023/11/15 01:19:36;;;;;;;2.58;1.58;;;23.70;48.40;;;;;;6179142;28;80969;-65
2023/11/15 01:22:37;;;;;;;5.32;1.80;;;23.80;48.60;;;;;;6177274;28;83383;-65
2023/11/15 01:25:38;;;;;;;3.13;1.27;;;23.80;49.20;;;;;;6179066;28;81051;-65
2023/11/15 01:28:38;;;;;;;4.28;1.65;;;23.80;48.80;;;;;;6179571;28;81390;-65
2023/11/15 01:31:39;;;;;;;3.85;1.63;;;23.80;48.80;;;;;;6177769;28;80801;-65
2023/11/15 01:34:40;;;;;;;4.97;1.55;;;23.70;48.80;;;;;;6177244;28;82066;-65
2023/11/15 01:37:41;;;;;;;3.35;1.55;;;23.70;48.80;;;;;;6177174;28;83078;-64
2023/11/15 01:40:42;;;;;;;1.95;1.30;;;23.80;48.70;;;;;;6177806;28;81724;-64
2023/11/15 01:43:42;;;;;;;2.47;1.45;;;23.80;48.80;;;;;;6176907;28;82863;-64
2023/11/15 01:46:43;;;;;;;1.63;1.05;;;23.80;48.70;;;;;;6178969;28;80220;-65
2023/11/15 01:49:44;;;;;;;2.03;1.30;;;23.80;48.80;;;;;;6176911;28;80585;-66
2023/11/15 01:52:45;;;;;;;5.18;1.63;;;23.70;48.70;;;;;;6178268;28;80748;-63
2023/11/15 01:55:45;;;;;;;1.63;1.10;;;23.70;48.60;;;;;;6174681;28;80680;-63
2023/11/15 01:58:46;;;;;;;3.47;1.48;;;23.70;48.60;;;;;;6172890;28;81569;-63
2023/11/15 02:01:46;;;;;;;3.05;1.50;;;23.70;48.60;;;;;;6174682;28;80308;-63
2023/11/15 02:04:47;;;;;;;3.80;1.58;;;23.70;49.20;;;;;;6174107;28;81647;-63
2023/11/15 02:07:48;;;;;;;2.28;0.98;;;23.70;48.60;;;;;;6156599;28;82856;-63
2023/11/15 02:10:49;;;;;;;3.75;1.33;;;23.60;48.60;;;;;;6158453;28;80653;-63
2023/11/15 02:13:49;;;;;;;2.58;1.20;;;23.70;48.60;;;;;;6177278;28;82369;-64
2023/11/15 02:16:51;;;;;;;1.77;1.13;;;23.70;48.50;;;;;;6175931;28;82231;-64
2023/11/15 02:19:52;;;;;;;1.20;0.90;;;23.70;48.50;;;;;;6176437;28;81187;-65
2023/11/15 02:22:53;;;;;;;3.97;1.30;;;23.70;48.50;;;;;;6176179;28;83705;-64
2023/11/15 02:25:53;;;;;;;1.95;1.00;;;23.70;48.60;;;;;;6177636;28;80555;-66
2023/11/15 02:28:54;;;;;;;2.85;1.42;;;23.70;48.70;;;;;;6176639;28;80435;-66
2023/11/15 02:31:55;;;;;;;1.30;1.00;;;23.70;48.50;;;;;;6176331;28;81614;-66
2023/11/15 02:34:55;;;;;;;2.65;1.20;;;23.60;48.50;;;;;;6177354;28;80378;-67
2023/11/15 02:37:56;;;;;;;3.03;1.50;;;23.70;48.50;;;;;;6187148;28;86025;-67
2023/11/15 02:40:56;;;;;;;1.80;1.20;;;23.70;48.50;;;;;;6188071;28;80541;-67
2023/11/15 02:43:57;;;;;;;3.53;1.45;;;23.70;48.60;;;;;;6178086;28;82355;-65
2023/11/15 02:46:57;;;;;;;3.13;1.23;;;23.70;48.40;;;;;;6185726;28;82571;-65
2023/11/15 02:49:58;;;;;;;1.88;1.00;;;23.70;48.50;;;;;;6198679;28;80343;-65
2023/11/15 02:52:58;;;;;;;2.15;1.10;;;23.70;48.50;;;;;;6199497;28;80546;-64
2023/11/15 02:55:59;;;;;;;2.47;1.17;;;23.70;48.50;;;;;;6200592;28;83466;-63
2023/11/15 02:58:59;;;;;;;2.40;1.08;;;23.70;48.50;;;;;;6184862;28;80672;-64
2023/11/15 03:02:00;;;;;;;1.10;0.80;;;23.70;48.50;;;;;;6187959;28;80650;-64
2023/11/15 03:05:00;;;;;;;1.08;0.82;;;23.70;48.60;;;;;;6192203;28;83703;-64
2023/11/15 03:08:01;;;;;;;2.45;1.10;;;23.70;48.50;;;;;;6191068;28;80226;-66
2023/11/15 03:11:02;;;;;;;3.25;1.30;;;23.70;48.60;;;;;;6187335;28;81558;-66
2023/11/15 03:14:02;;;;;;;2.17;1.02;;;23.70;48.60;;;;;;6194213;28;81858;-66
2023/11/15 03:17:03;;;;;;;3.75;1.40;;;23.70;48.60;;;;;;6176343;28;80586;-65
2023/11/15 03:20:05;;;;;;;1.55;1.20;;;23.70;49.40;;;;;;6176511;28;80313;-60
2023/11/15 03:23:05;;;;;;;1.58;0.90;;;23.70;48.60;;;;;;6175974;28;80448;-61
2023/11/15 03:26:06;;;;;;;0.77;0.77;;;23.70;48.60;;;;;;6175522;28;82350;-60
2023/11/15 03:29:08;;;;;;;4.43;1.55;;;23.70;48.60;;;;;;6178673;28;81106;-59
2023/11/15 03:32:10;;;;;;;1.60;0.90;;;23.70;48.80;;;;;;6176646;28;82138;-59
2023/11/15 03:35:11;;;;;;;1.45;1.10;;;23.70;48.80;;;;;;6175848;28;80441;-58
2023/11/15 03:38:11;;;;;;;1.77;1.00;;;23.70;48.90;;;;;;6175706;28;81661;-59
2023/11/15 03:41:12;;;;;;;2.20;0.98;;;23.70;48.90;;;;;;6176951;28;80428;-60
2023/11/15 03:44:13;;;;;;;1.77;0.80;;;23.70;48.80;;;;;;6173816;28;80857;-60
2023/11/15 03:47:14;;;;;;;1.60;1.10;;;23.70;49.00;;;;;;6176951;28;83054;-61
2023/11/15 03:50:15;;;;;;;1.35;0.90;;;23.70;48.90;;;;;;6179654;28;81518;-61
2023/11/15 03:53:16;;;;;;;2.15;1.02;;;23.70;48.90;;;;;;6178578;28;80174;-60
2023/11/15 03:56:17;;;;;;;0.98;0.98;;;23.70;49.00;;;;;;6176591;28;80368;-59
2023/11/15 03:59:19;;;;;;;1.25;0.80;;;23.70;49.00;;;;;;6173645;28;83056;-59
2023/11/15 04:02:19;;;;;;;1.27;1.00;;;23.60;49.00;;;;;;6172459;28;83589;-59
2023/11/15 04:05:20;;;;;;;2.08;1.63;;;23.70;49.00;;;;;;6173492;28;80387;-58
2023/11/15 04:08:21;;;;;;;2.28;0.95;;;23.70;49.10;;;;;;6176156;28;80315;-59
2023/11/15 04:11:21;;;;;;;3.15;1.15;;;23.70;49.00;;;;;;6172346;28;80858;-59
2023/11/15 04:14:24;;;;;;;1.98;0.88;;;23.70;49.20;;;;;;6173583;28;83294;-67
2023/11/15 04:17:25;;;;;;;3.45;1.05;;;23.70;49.10;;;;;;6173928;28;81068;-67
2023/11/15 04:20:27;;;;;;;1.65;0.95;;;23.70;49.00;;;;;;6173972;28;83111;-66
2023/11/15 04:23:28;;;;;;;2.10;1.10;;;23.70;49.00;;;;;;6175129;28;83523;-67
2023/11/15 04:26:29;;;;;;;3.17;1.45;;;23.70;49.10;;;;;;6175413;28;80333;-68
2023/11/15 04:29:29;;;;;;;1.45;0.70;;;23.70;49.30;;;;;;6170026;28;82018;-68
2023/11/15 04:32:30;;;;;;;0.98;0.80;;;23.70;49.40;;;;;;6172768;28;80096;-68
2023/11/15 04:35:30;;;;;;;1.35;1.10;;;23.70;49.30;;;;;;6175886;28;80761;-68
2023/11/15 04:38:31;;;;;;;2.47;0.88;;;23.70;49.50;;;;;;6175820;28;80399;-76
2023/11/15 04:41:31;;;;;;;2.08;1.08;;;23.70;49.00;;;;;;6173588;28;81266;-68
2023/11/15 04:44:32;;;;;;;1.55;1.17;;;23.70;49.10;;;;;;6175573;28;81295;-66
2023/11/15 04:47:32;;;;;;;1.65;0.90;;;23.70;49.20;;;;;;6173696;28;80568;-67
2023/11/15 04:50:33;;;;;;;2.10;0.80;;;23.70;49.10;;;;;;6173984;28;81077;-70
2023/11/15 04:53:34;;;;;;;1.55;0.85;;;23.70;49.10;;;;;;6173600;28;80578;-61
2023/11/15 04:56:34;;;;;;;2.08;0.93;;;23.80;49.20;;;;;;6177482;28;80271;-62
2023/11/15 04:59:35;;;;;;;1.38;0.82;;;23.80;49.20;;;;;;6174004;28;80871;-66
2023/11/15 05:02:35;;;;;;;1.95;0.82;;;23.80;49.10;;;;;;6177563;28;81479;-70
2023/11/15 05:05:36;;;;;;;2.05;0.85;;;23.80;49.10;;;;;;6180384;28;80708;-66
2023/11/15 05:08:36;;;;;;;3.90;1.10;;;23.90;49.10;;;;;;6180771;28;81339;-72
2023/11/15 05:11:37;;;;;;;1.42;0.70;;;23.90;49.40;;;;;;6165369;28;80409;-71
2023/11/15 05:14:37;;;;;;;0.75;0.60;;;23.90;49.70;;;;;;6167963;28;82421;-69
2023/11/15 05:17:38;;;;;;;1.27;0.90;;;23.90;49.90;;;;;;6175439;28;81038;-67
2023/11/15 05:20:38;;;;;;;2.15;0.90;;;23.90;50.00;;;;;;6177707;28;83847;-76
2023/11/15 05:23:39;;;;;;;0.60;0.55;;;23.90;50.20;;;;;;6176947;28;80708;-68
2023/11/15 05:26:39;;;;;;;3.63;0.75;;;24.00;50.00;;;;;;6176439;28;80232;-74
2023/11/15 05:29:40;;;;;;;2.72;0.70;;;24.00;49.90;;;;;;6172658;28;81027;-53
2023/11/15 05:32:40;;;;;;;3.45;0.88;;;24.00;49.90;;;;;;6177509;28;80514;-64
2023/11/15 05:35:41;;;;;;;8.82;0.80;;;24.00;50.30;;;;;;6176268;28;81146;-59
2023/11/15 05:38:41;;;;;;;6.43;0.98;;;24.00;50.30;;;;;;6177794;28;81149;-60
2023/11/15 05:41:42;;;;;;;2.95;0.80;;;24.00;50.40;;;;;;6178896;28;81396;-60
2023/11/15 05:44:42;;;;;;;3.25;0.90;;;24.00;49.80;;;;;;6178019;28;80462;-61
2023/11/15 05:47:44;;;;;;;8.60;0.73;;;23.90;49.00;;;;;;6178383;28;80389;-60
2023/11/15 05:50:45;;;;;;;3.08;0.70;;;23.80;48.70;;;;;;6176992;28;80561;-60
2023/11/15 05:53:46;;;;;;;3.13;0.70;;;23.70;48.30;;;;;;6174296;28;80719;-60
2023/11/15 05:56:49;;;;;;;1.13;0.63;;;23.70;48.10;;;;;;6175692;28;80675;-60
2023/11/15 05:59:49;;;;;;;1.85;0.88;;;23.70;48.10;;;;;;6174855;28;80541;-60
2023/11/15 06:02:50;;;;;;;0.68;0.57;;;23.60;47.80;;;;;;6174031;28;81846;-60
2023/11/15 06:05:51;;;;;;;1.88;0.55;;;23.60;47.80;;;;;;6165036;28;84866;-70
2023/11/15 06:08:51;;;;;;;1.08;0.65;;;23.50;47.70;;;;;;6165041;28;82197;-69
2023/11/15 06:11:52;;;;;;;0.77;0.60;;;23.50;47.70;;;;;;6175137;28;80032;-70
2023/11/15 06:14:53;;;;;;;2.75;0.60;;;23.50;48.00;;;;;;6171765;28;81417;-71
2023/11/15 06:17:54;;;;;;;2.55;0.85;;;23.50;48.30;;;;;;6155035;28;82855;-71
2023/11/15 06:20:55;;;;;;;3.75;0.77;;;23.50;48.60;;;;;;6170016;28;80714;-71
2023/11/15 06:23:56;;;;;;;1.15;0.65;;;23.50;49.20;;;;;;6172386;28;80885;-59
2023/11/15 06:26:57;;;;;;;0.80;0.68;;;23.40;48.70;;;;;;6166849;28;80482;-60
2023/11/15 06:29:58;;;;;;;1.65;0.75;;;23.40;48.40;;;;;;6171615;28;81135;-60
2023/11/15 06:32:59;;;;;;;2.20;0.60;;;23.40;48.40;;;;;;6168234;28;80920;-60
2023/11/15 06:36:01;;;;;;;1.50;0.70;;;23.30;48.10;;;;;;6170763;28;85407;-59
2023/11/15 06:39:03;;;;;;;1.92;0.90;;;23.40;48.10;;;;;;6170039;28;80841;-58
2023/11/15 06:42:03;;;;;;;1.13;0.93;;;23.30;48.10;;;;;;6171540;28;83362;-59
2023/11/15 06:45:04;;;;;;;1.17;0.63;;;23.30;47.90;;;;;;6174538;28;80937;-59
2023/11/15 06:48:06;;;;;;;1.52;0.77;;;23.20;48.00;;;;;;6173670;28;81616;-58
2023/11/15 06:51:07;;;;;;;1.58;0.80;;;23.20;47.90;;;;;;6174796;28;80549;-59
2023/11/15 06:54:07;;;;;;;0.98;0.80;;;23.20;47.90;;;;;;6176179;28;82060;-59
2023/11/15 06:57:08;;;;;;;2.15;0.82;;;23.20;48.60;;;;;;6173386;28;81054;-59
2023/11/15 07:00:08;;;;;;;2.45;0.98;;;23.10;48.10;;;;;;6163298;28;80328;-59
2023/11/15 07:03:12;;;;;;;1.85;0.70;;;23.10;47.90;;;;;;6174171;28;80605;-58
2023/11/15 07:06:13;;;;;;;1.73;0.88;;;23.10;47.90;;;;;;6173750;28;80279;-59
2023/11/15 07:09:18;;;;;;;1.15;0.80;;;23.10;47.90;;;;;;6174781;28;80627;-61
2023/11/15 07:12:19;;;;;;;2.73;0.90;;;23.10;48.00;;;;;;6174502;28;81393;-59
2023/11/15 07:15:19;;;;;;;3.25;1.10;;;23.10;48.00;;;;;;6171691;28;80537;-59
2023/11/15 07:18:23;;;;;;;1.35;1.02;;;23.10;47.80;;;;;;6172842;28;80531;-59
2023/11/15 07:21:23;;;;;;;2.28;1.00;;;23.00;47.90;;;;;;6162835;28;80483;-59
2023/11/15 07:24:25;;;;;;;1.13;0.80;;;23.00;47.90;;;;;;6174803;28;80576;-59
2023/11/15 07:27:26;;;;;;;1.40;1.08;;;23.00;48.00;;;;;;6173556;28;80922;-59
2023/11/15 07:30:27;;;;;;;2.30;1.35;;;23.00;48.00;;;;;;6174487;28;80091;-59
2023/11/15 07:33:27;;;;;;;1.60;1.10;;;23.00;48.00;;;;;;6173968;28;81419;-59
2023/11/15 07:36:29;;;;;;;10.23;1.85;;;23.00;48.10;;;;;;6170772;28;80350;-58
2023/11/15 07:39:30;;;;;;;1.95;1.17;;;22.90;48.10;;;;;;6173759;28;80692;-59
2023/11/15 07:42:34;;;;;;;3.40;1.30;;;22.90;48.00;;;;;;6173162;28;81081;-59
2023/11/15 07:45:35;;;;;;;1.27;1.00;;;22.90;48.00;;;;;;6173275;28;80566;-59
2023/11/15 07:48:36;;;;;;;2.65;1.30;;;22.90;48.00;;;;;;6173709;28;83032;-60
2023/11/15 07:51:37;;;;;;;1.58;1.15;;;22.90;48.00;;;;;;6173522;28;80718;-60
2023/11/15 07:54:39;;;;;;;2.80;1.15;;;22.90;48.10;;;;;;6173839;28;80479;-60
2023/11/15 07:57:40;;;;;;;2.72;1.40;;;22.90;48.10;;;;;;6173184;28;80465;-61
2023/11/15 08:00:41;;;;;;;2.17;1.20;;;22.80;48.20;;;;;;6172657;28;80149;-63
2023/11/15 08:03:41;;;;;;;3.38;1.30;;;22.80;48.20;;;;;;6172143;28;84998;-63
2023/11/15 08:06:42;;;;;;;3.20;1.35;;;22.80;48.20;;;;;;6173684;28;80247;-59
2023/11/15 08:09:43;;;;;;;1.73;1.10;;;22.80;48.30;;;;;;6172752;28;81242;-59
2023/11/15 08:12:44;;;;;;;3.33;1.60;;;22.80;48.40;;;;;;6173252;28;80894;-64
2023/11/15 08:15:44;;;;;;;2.13;1.33;;;22.80;48.40;;;;;;6174161;28;82220;-60
2023/11/15 08:18:45;;;;;;;2.10;1.30;;;22.80;48.50;;;;;;6173948;28;80596;-59
2023/11/15 08:21:45;;;;;;;3.45;1.15;;;22.80;48.50;;;;;;6176317;28;80650;-58
2023/11/15 08:24:46;;;;;;;4.57;1.80;;;22.80;48.60;;;;;;6174433;28;80765;-60
2023/11/15 08:27:47;;;;;;;2.33;1.40;;;22.80;48.60;;;;;;6173546;28;81053;-59
2023/11/15 08:30:48;;;;;;;2.72;1.30;;;22.80;48.60;;;;;;6174737;28;82413;-59
2023/11/15 08:33:48;;;;;;;3.75;1.38;;;22.80;48.70;;;;;;6175729;28;80929;-59
2023/11/15 08:36:49;;;;;;;3.30;1.52;;;22.80;48.80;;;;;;6174825;28;80342;-58
2023/11/15 08:39:49;;;;;;;2.53;1.60;;;22.80;48.80;;;;;;6172350;28;82546;-59
2023/11/15 08:42:51;;;;;;;2.00;1.40;;;22.80;48.80;;;;;;6173533;28;80621;-58
2023/11/15 08:45:52;;;;;;;4.88;1.35;;;22.80;48.80;;;;;;6168953;28;81399;-57
2023/11/15 08:48:52;;;;;;;2.80;1.35;;;22.90;49.00;;;;;;6172778;28;80775;-59
2023/11/15 08:51:53;;;;;;;2.42;1.50;;;22.90;49.00;;;;;;6173631;28;80683;-71
2023/11/15 08:54:56;;;;;;;2.05;1.42;;;22.90;48.70;;;;;;6174358;28;80443;-72
2023/11/15 08:57:56;;;;;;;1.85;1.08;;;22.80;48.60;;;;;;6173085;28;81717;-71
2023/11/15 09:01:01;;;;;;;4.30;1.70;;;22.80;48.70;;;;;;6150430;28;80706;-69
2023/11/15 09:04:01;;;;;;;2.45;1.55;;;22.90;48.60;;;;;;6172422;28;80858;-68
2023/11/15 09:07:02;;;;;;;3.47;1.20;;;22.90;48.80;;;;;;6171359;28;80474;-69
2023/11/15 09:10:04;;;;;;;2.38;1.45;;;22.90;48.70;;;;;;6170016;28;80711;-70
2023/11/15 09:13:08;;;;;;;2.75;1.67;;;22.90;48.90;;;;;;6166411;28;82966;-71
2023/11/15 09:16:12;;;;;;;3.28;1.20;;;22.90;49.20;;;;;;6169482;28;84442;-69
2023/11/15 09:19:16;;;;;;;1.67;1.02;;;22.90;48.90;;;;;;6171250;28;80261;-68
2023/11/15 09:22:18;;;;;;;1.83;1.20;;;22.90;48.80;;;;;;6162367;28;80388;-68
2023/11/15 09:25:23;;;;;;;1.27;0.95;;;22.90;48.80;;;;;;6167885;28;80717;-69
2023/11/15 09:28:24;;;;;;;1.80;1.05;;;22.90;48.80;;;;;;6163251;28;81242;-59
2023/11/15 09:31:24;;;;;;;2.33;1.13;;;22.90;48.90;;;;;;6166443;28;84600;-60
2023/11/15 09:34:25;;;;;;;1.92;0.80;;;22.90;48.90;;;;;;6167763;28;81956;-59
2023/11/15 09:37:25;;;;;;;1.73;1.05;;;22.90;48.90;;;;;;6157980;28;83793;-59
2023/11/15 09:40:26;;;;;;;2.20;1.50;;;22.90;48.90;;;;;;6112800;28;86251;-60
2023/11/15 09:43:27;;;;;;;1.10;1.00;;;22.90;49.00;;;;;;6158913;28;85866;-60
2023/11/15 09:46:29;;;;;;;2.17;1.10;;;22.90;49.10;;;;;;6171865;28;81269;-68
2023/11/15 09:49:30;;;;;;;1.92;1.20;;;22.90;49.00;;;;;;6175024;28;80611;-69
2023/11/15 09:52:31;;;;;;;1.33;1.17;;;22.90;49.00;;;;;;6172049;28;80739;-70
2023/11/15 09:55:31;;;;;;;2.58;1.02;;;22.90;49.00;;;;;;6166877;28;86043;-69
2023/11/15 09:58:32;;;;;;;1.95;0.95;;;22.90;49.00;;;;;;6172521;28;80201;-70
2023/11/15 10:01:33;;;;;;;2.15;0.90;;;22.90;49.10;;;;;;6173722;28;81382;-71
2023/11/15 10:04:34;;;;;;;2.00;1.20;;;22.90;49.00;;;;;;6175325;28;80501;-70
2023/11/15 10:07:37;;;;;;;2.70;1.30;;;22.90;49.10;;;;;;6173013;28;80815;-70
2023/11/15 10:10:37;;;;;;;2.20;1.27;;;22.90;49.10;;;;;;6170318;28;81780;-71
2023/11/15 10:13:39;;;;;;;3.03;1.70;;;22.90;49.20;;;;;;6174361;28;81026;-71
2023/11/15 10:16:40;;;;;;;2.70;1.30;;;22.90;49.10;;;;;;6174473;28;83734;-69
2023/11/15 10:19:40;;;;;;;1.42;1.20;;;22.90;49.10;;;;;;6174297;28;81251;-69
2023/11/15 10:22:40;;;;;;;2.45;1.77;;;22.90;49.20;;;;;;6165130;28;80796;-59
2023/11/15 10:25:42;;;;;;;2.28;1.42;;;22.90;49.10;;;;;;6171978;28;81773;-59
2023/11/15 10:28:44;;;;;;;3.80;1.20;;;22.90;49.20;;;;;;6169562;28;81563;-59
2023/11/15 10:31:44;;;;;;;1.45;1.15;;;23.00;49.00;;;;;;6165222;28;83356;-60
2023/11/15 10:34:45;;;;;;;2.25;1.55;;;23.00;49.40;;;;;;6176790;28;80354;-59
2023/11/15 10:37:46;;;;;;;1.85;1.40;;;23.00;49.20;;;;;;6175922;28;80867;-59
2023/11/15 10:40:51;;;;;;;1.10;1.00;;;23.00;49.00;;;;;;6177101;28;80284;-59
2023/11/15 10:43:51;;;;;;;1.20;1.08;;;23.10;48.90;;;;;;6177590;28;80299;-57
2023/11/15 10:46:52;;;;;;;2.17;1.20;;;23.10;49.00;;;;;;6177318;28;81178;-59
2023/11/15 10:49:53;;;;;;;1.50;1.27;;;23.10;48.90;;;;;;6177691;28;81943;-60
2023/11/15 10:52:54;;;;;;;2.08;1.00;;;23.10;48.70;;;;;;6176882;28;80423;-58
2023/11/15 10:55:55;;;;;;;1.73;1.10;;;23.10;48.80;;;;;;6173515;28;80857;-58
2023/11/15 10:58:55;;;;;;;2.10;1.42;;;23.10;48.70;;;;;;6176799;28;82041;-58
2023/11/15 11:01:56;;;;;;;1.42;0.98;;;23.10;48.60;;;;;;6177607;28;81087;-59
2023/11/15 11:04:57;;;;;;;1.40;1.05;;;23.10;48.60;;;;;;6175741;28;81874;-59
2023/11/15 11:07:57;;;;;;;2.75;1.48;;;23.10;48.70;;;;;;6176096;28;81199;-59
2023/11/15 11:10:58;;;;;;;1.65;1.25;;;23.10;48.80;;;;;;6178192;28;81668;-59
2023/11/15 11:13:58;;;;;;;2.50;1.10;;;23.10;48.70;;;;;;6175665;28;80790;-60
2023/11/15 11:16:59;;;;;;;2.13;1.30;;;23.10;49.00;;;;;;6176356;28;80861;-59
2023/11/15 11:20:01;;;;;;;1.70;0.95;;;23.10;48.80;;;;;;6175862;28;80450;-58
2023/11/15 11:23:02;;;;;;;2.20;1.42;;;23.10;48.90;;;;;;6177447;28;82412;-60
2023/11/15 11:26:03;;;;;;;3.90;1.77;;;23.10;48.80;;;;;;6177186;28;80675;-59
2023/11/15 11:29:04;;;;;;;2.90;1.23;;;23.10;48.80;;;;;;6174010;28;80424;-60
2023/11/15 11:32:04;;;;;;;2.38;1.50;;;23.10;48.90;;;;;;6162980;28;81546;-58
2023/11/15 11:35:12;;;;;;;2.38;1.33;;;23.10;48.90;;;;;;6177269;28;83695;-71
2023/11/15 11:38:13;;;;;;;2.80;1.83;;;23.10;48.60;;;;;;6177149;28;82393;-68
2023/11/15 11:41:14;;;;;;;2.03;1.42;;;23.20;48.50;;;;;;6168289;28;80592;-71
2023/11/15 11:44:14;;;;;;;2.70;1.70;;;23.20;48.60;;;;;;6169647;28;82725;-64
2023/11/15 11:47:15;;;;;;;2.22;1.55;;;23.20;49.00;;;;;;6178708;28;80141;-63
2023/11/15 11:50:15;;;;;;;2.05;1.27;;;23.20;49.10;;;;;;6176762;28;81027;-65
2023/11/15 11:53:17;;;;;;;3.33;1.38;;;23.20;49.40;;;;;;6178598;28;80764;-59
2023/11/15 11:56:18;;;;;;;1.45;1.23;;;23.20;49.30;;;;;;6178082;28;81805;-58
2023/11/15 11:59:19;;;;;;;3.25;1.30;;;23.20;49.20;;;;;;6172930;28;80390;-58
2023/11/15 12:02:19;;;;;;;2.63;1.38;;;23.20;49.30;;;;;;6177069;28;80672;-59
2023/11/15 12:05:20;;;;;;;2.88;1.48;;;23.20;49.50;;;;;;6177475;28;80345;-60
2023/11/15 12:08:22;;;;;;;5.45;1.80;;;23.20;49.30;;;;;;6178361;28;80495;-59
2023/11/15 12:11:23;;;;;;;3.65;1.52;;;23.20;49.20;;;;;;6178630;28;80366;-59
2023/11/15 12:14:24;;;;;;;2.45;1.40;;;23.20;49.30;;;;;;6173624;28;80392;-58
2023/11/15 12:17:24;;;;;;;1.48;1.30;;;23.20;49.30;;;;;;6177745;28;80341;-57
2023/11/15 12:20:25;;;;;;;3.40;1.90;;;23.30;49.40;;;;;;6177546;28;80506;-58
2023/11/15 12:23:26;;;;;;;2.85;1.60;;;23.30;49.30;;;;;;6174467;28;80472;-56
2023/11/15 12:26:26;;;;;;;2.45;1.30;;;23.30;49.20;;;;;;6176750;28;80509;-58
2023/11/15 12:29:29;;;;;;;2.47;1.60;;;23.30;49.00;;;;;;6174269;28;80392;-56
2023/11/15 12:32:30;;;;;;;2.47;1.83;;;23.30;49.00;;;;;;6175753;28;80755;-58
2023/11/15 12:35:31;;;;;;;6.72;1.50;;;23.30;49.00;;;;;;6168285;28;80695;-59
2023/11/15 12:38:32;;;;;;;4.57;1.45;;;23.30;49.10;;;;;;6161131;28;80606;-58
2023/11/15 12:41:32;;;;;;;6.00;1.50;;;23.30;48.80;;;;;;6174994;28;80518;-59
2023/11/15 12:44:33;;;;;;;1.80;1.30;;;23.30;48.90;;;;;;6175024;28;81542;-58
2023/11/15 12:47:33;;;;;;;2.17;1.48;;;23.30;48.60;;;;;;6178089;28;82254;-57
2023/11/15 12:50:37;;;;;;;1.65;1.20;;;23.30;48.40;;;;;;6171071;28;80751;-60
2023/11/15 12:53:39;;;;;;;3.15;1.60;;;23.40;48.10;;;;;;6175998;28;80572;-59
2023/11/15 12:56:42;;;;;;;3.55;1.83;;;23.30;48.20;;;;;;6171499;28;81770;-58
2023/11/15 12:59:47;;;;;;;1.77;1.20;;;23.40;48.20;;;;;;6177212;28;81084;-56
2023/11/15 13:02:48;;;;;;;1.33;1.02;;;23.40;48.20;;;;;;6165350;28;81905;-59
2023/11/15 13:05:49;;;;;;;3.70;1.30;;;23.40;48.60;;;;;;6176830;28;81858;-57
2023/11/15 13:08:49;;;;;;;1.92;1.38;;;23.40;48.30;;;;;;6175044;28;80253;-58
2023/11/15 13:11:50;;;;;;;1.98;1.20;;;23.40;48.80;;;;;;6176129;28;80434;-57
2023/11/15 13:14:50;;;;;;;1.92;1.20;;;23.40;48.30;;;;;;6181105;28;91438;-57
2023/11/15 13:17:51;;;;;;;2.97;1.60;;;23.40;48.30;;;;;;6163639;28;87361;-57
2023/11/15 13:20:52;;;;;;;2.92;1.45;;;23.40;48.20;;;;;;6157608;28;80308;-56
2023/11/15 13:23:53;;;;;;;5.18;1.50;;;23.40;48.20;;;;;;6157387;28;80819;-58
2023/11/15 13:26:55;;;;;;;2.75;1.27;;;23.40;47.90;;;;;;6153473;28;83272;-55
2023/11/15 13:29:56;;;;;;;2.53;1.60;;;23.40;47.80;;;;;;6153818;28;80700;-59
2023/11/15 13:32:57;;;;;;;2.22;1.23;;;23.40;47.70;;;;;;6155067;28;80449;-57
2023/11/15 13:35:58;;;;;;;1.98;1.45;;;23.40;47.70;;;;;;6157156;28;80448;-55
2023/11/15 13:38:58;;;;;;;1.80;1.30;;;23.40;47.50;;;;;;6152704;28;81845;-58
2023/11/15 13:41:59;;;;;;;1.70;1.27;;;23.40;47.70;;;;;;6150361;28;80599;-57
2023/11/15 13:44:59;;;;;;;3.17;1.52;;;23.50;47.60;;;;;;6155951;28;80589;-56
2023/11/15 13:48:00;;;;;;;2.42;1.17;;;23.60;47.60;;;;;;6148653;28;80409;-57
2023/11/15 13:51:00;;;;;;;2.80;1.27;;;23.70;47.80;;;;;;6154927;28;80362;-57
2023/11/15 13:54:02;;;;;;;1.80;1.10;;;23.70;48.00;;;;;;6151312;28;82299;-57
2023/11/15 13:57:02;;;;;;;1.20;1.02;;;23.60;48.00;;;;;;6154792;28;85784;-56
2023/11/15 14:00:23;;;;;;;2.83;1.10;;;23.60;48.30;;;;;;6155048;28;80469;-57
2023/11/15 14:03:26;;;;;;;1.23;1.00;;;23.60;48.30;;;;;;6149928;28;80406;-59
2023/11/15 14:06:27;;;;;;;2.40;1.70;;;23.60;48.30;;;;;;6155856;28;80830;-58
2023/11/15 14:09:30;;;;;;;1.40;1.08;;;23.60;48.20;;;;;;6174174;28;80242;-57
2023/11/15 14:12:31;;;;;;;2.75;1.77;;;23.60;48.10;;;;;;6179543;28;81647;-56
2023/11/15 14:15:31;;;;;;;1.42;1.17;;;23.60;48.00;;;;;;6175714;28;80280;-59
2023/11/15 14:18:32;;;;;;;2.17;1.15;;;23.60;48.10;;;;;;6180356;28;80287;-57
2023/11/15 14:21:33;;;;;;;3.20;1.38;;;23.60;48.10;;;;;;6179199;28;81405;-56
2023/11/15 14:24:33;;;;;;;2.13;1.27;;;23.60;48.60;;;;;;6176968;28;81524;-59
2023/11/15 14:27:37;;;;;;;4.03;1.38;;;23.50;48.60;;;;;;6178517;28;80486;-58
2023/11/15 14:30:39;;;;;;;2.78;1.40;;;23.60;48.30;;;;;;6176923;28;80443;-58
2023/11/15 14:33:40;;;;;;;2.13;1.30;;;23.50;48.00;;;;;;6176849;28;80965;-57
2023/11/15 14:36:45;;;;;;;3.55;1.40;;;23.50;48.00;;;;;;6178002;28;80818;-57
2023/11/15 14:39:45;;;;;;;2.72;1.10;;;23.50;48.00;;;;;;6175437;28;85166;-67
2023/11/15 14:42:46;;;;;;;3.97;1.23;;;23.50;47.90;;;;;;6184546;28;80335;-67
2023/11/15 14:45:46;;;;;;;1.92;1.10;;;23.50;47.90;;;;;;6175585;28;80711;-65
2023/11/15 14:48:47;;;;;;;1.38;1.10;;;23.50;47.90;;;;;;6174974;28;80595;-65
2023/11/15 14:51:58;;;;;;;1.77;1.23;;;23.50;47.70;;;;;;6197345;28;80783;-65
2023/11/15 14:55:04;;;;;;;3.22;1.17;;;23.50;47.60;;;;;;6193454;28;80375;-64
2023/11/15 14:58:04;;;;;;;2.97;1.73;;;23.40;47.50;;;;;;6191052;28;80707;-66
2023/11/15 15:01:05;;;;;;;4.82;1.13;;;23.40;47.40;;;;;;6178024;28;80448;-66
2023/11/15 15:04:08;;;;;;;1.30;1.10;;;23.40;47.30;;;;;;6194867;28;82831;-66
2023/11/15 15:07:08;;;;;;;3.38;1.55;;;23.30;47.30;;;;;;6193590;28;81247;-66
2023/11/15 15:10:11;;;;;;;3.60;1.40;;;23.40;47.20;;;;;;6175417;28;81296;-66
2023/11/15 15:13:12;;;;;;;1.40;1.10;;;23.40;47.10;;;;;;6178463;28;80492;-66
2023/11/15 15:16:15;;;;;;;2.00;1.20;;;23.30;47.10;;;;;;6175829;28;80498;-68
2023/11/15 15:19:15;;;;;;;1.67;1.20;;;23.30;47.00;;;;;;6181666;28;81458;-67
2023/11/15 15:22:16;;;;;;;1.90;1.27;;;23.30;47.10;;;;;;6180621;28;80426;-68
2023/11/15 15:25:16;;;;;;;1.73;1.42;;;23.30;47.10;;;;;;6177446;28;80425;-67
2023/11/15 15:28:18;;;;;;;1.95;1.17;;;23.30;47.10;;;;;;6177128;28;81034;-66
2023/11/15 15:31:19;;;;;;;1.90;1.30;;;23.30;47.20;;;;;;6177036;28;80741;-67
2023/11/15 15:34:19;;;;;;;1.58;1.00;;;23.30;47.20;;;;;;6176680;28;80797;-67
2023/11/15 15:37:20;;;;;;;2.53;1.67;;;23.30;47.20;;;;;;6171474;28;80445;-68
2023/11/15 15:40:25;;;;;;;1.65;1.00;;;23.30;47.20;;;;;;6157010;28;81869;-68
2023/11/15 15:43:26;;;;;;;1.63;1.10;;;23.30;47.20;;;;;;6182355;28;81948;-68